Ikan Parang — 9V9099 — position and weather

sailwx.info

Track history (hours):
 
Tides and Currents Weather Stations Pressure Air Temp Water Temp Dewpoint Dewpoint Depression Visibility Wind Speed Wind Dir Waves Ship Positions

Ikan Parang

Last reported at 2016-Apr-17 11:19 UTC. Time now 2016-May-01 08:01 UTC.
Position N 01°55' E 102°22'.
Warning: this ship's position is 13 days out of date.

Length 183 m; draft 13.1 m.

Type: Cargo ship. MMSI: 566238000.

Date/timePositionNaut miles runAvg speedWind from/ knotsBaromVisibWave heightAir tempDewpointWater temp
2016-Apr-17 11:19N 01°55' E 102°22'8813.1
2016-Apr-17 04:33N 01°11' E 103°39'12 8.8
2016-Apr-17 03:09N 01°12' E 103°51'5 8.4
2016-Apr-17 02:32N 01°14' E 103°56'3 2.5
2016-Apr-17 01:13N 01°17' E 103°57'0 0.1
2016-Apr-16 23:31N 01°17' E 103°57'0 0.0
2016-Apr-16 22:25N 01°17' E 103°57'0 0.0
2016-Apr-16 20:19N 01°17' E 103°57'0 0.0
2016-Apr-16 19:31N 01°17' E 103°57'0 0.0
2016-Apr-16 18:31N 01°17' E 103°57'0 0.0
2016-Apr-16 17:31N 01°17' E 103°57'0 0.0
2016-Apr-16 15:32N 01°17' E 103°57'0 0.0
2016-Apr-16 10:16N 01°17' E 103°57'0 0.0
2016-Apr-16 09:31N 01°17' E 103°57'0 0.1
2016-Apr-16 06:19N 01°17' E 103°57'0 0.0
2016-Apr-16 04:31N 01°17' E 103°57'0 0.0
2016-Apr-16 03:31N 01°17' E 103°57'0 0.0
2016-Apr-16 02:31N 01°17' E 103°57'0 0.1
2016-Apr-16 01:33N 01°17' E 103°57'2 2.1
2016-Apr-16 00:32N 01°15' E 103°57'3 3.5
2016-Apr-15 23:34N 01°16' E 104°00'6 5.6
2016-Apr-15 22:31N 01°16' E 104°06'  
Track history (hours):
 
Tides and Currents Weather Stations Pressure Air Temp Water Temp Dewpoint Dewpoint Depression Visibility Wind Speed Wind Dir Waves Ship Positions

Ikan Parang

Last reported at 2016-Apr-17 11:19 UTC. Time now 2016-May-01 08:01 UTC.
Position N 01°55' E 102°22'.
Warning: this ship's position is 13 days out of date.

Length 183 m; draft 13.1 m.

Type: Cargo ship. MMSI: 566238000.

Date/timePositionNaut miles runAvg speedWind from/ knotsBaromVisibWave heightAir tempDewpointWater temp
2016-Apr-17 11:19N 01°55' E 102°22'8813.1
2016-Apr-17 04:33N 01°11' E 103°39'12 8.8
2016-Apr-17 03:09N 01°12' E 103°51'5 8.4
2016-Apr-17 02:32N 01°14' E 103°56'3 2.5
2016-Apr-17 01:13N 01°17' E 103°57'0 0.1
2016-Apr-16 23:31N 01°17' E 103°57'0 0.0
2016-Apr-16 22:25N 01°17' E 103°57'0 0.0
2016-Apr-16 20:19N 01°17' E 103°57'0 0.0
2016-Apr-16 19:31N 01°17' E 103°57'0 0.0
2016-Apr-16 18:31N 01°17' E 103°57'0 0.0
2016-Apr-16 17:31N 01°17' E 103°57'0 0.0
2016-Apr-16 15:32N 01°17' E 103°57'0 0.0
2016-Apr-16 10:16N 01°17' E 103°57'0 0.0
2016-Apr-16 09:31N 01°17' E 103°57'0 0.1
2016-Apr-16 06:19N 01°17' E 103°57'0 0.0
2016-Apr-16 04:31N 01°17' E 103°57'0 0.0
2016-Apr-16 03:31N 01°17' E 103°57'0 0.0
2016-Apr-16 02:31N 01°17' E 103°57'0 0.1
2016-Apr-16 01:33N 01°17' E 103°57'2 2.1
2016-Apr-16 00:32N 01°15' E 103°57'3 3.5
2016-Apr-15 23:34N 01°16' E 104°00'6 5.6
2016-Apr-15 22:31N 01°16' E 104°06'  

Dump ship's entire track history